Time;durP1;ratioP1;P1;durP2;ratioP2;P2;SDS_P1;SDS_P2;PMS_P1;PMS_P2;Temp;Humidity;BMP_temperature;BMP_pressure;BME280_temperature;BME280_humidity;BME280_pressure;Samples;Min_cycle;Max_cycle;Signal;HPM_P1;HPM_P2
2022/09/12 00:00:30;;;;;;;0.73;0.73;;;16.70;99.90;;;;;;4990032;28;20055;-71
2022/09/12 00:02:57;;;;;;;0.30;0.30;;;16.70;99.90;;;;;;4991730;28;20050;-71
2022/09/12 00:05:23;;;;;;;0.05;0.05;;;16.70;99.90;;;;;;4989758;28;20057;-71
2022/09/12 00:07:50;;;;;;;0.20;0.20;;;16.60;99.90;;;;;;4991867;28;20052;-71
2022/09/12 00:10:16;;;;;;;0.52;0.52;;;16.60;99.90;;;;;;4997962;28;20460;-71
2022/09/12 00:12:42;;;;;;;1.00;0.40;;;16.70;99.90;;;;;;5011130;28;20034;-71
2022/09/12 00:15:09;;;;;;;0.20;0.20;;;16.70;99.90;;;;;;5010912;28;20050;-71
2022/09/12 00:17:36;;;;;;;0.50;0.50;;;16.70;99.90;;;;;;5007166;28;20775;-71
2022/09/12 00:20:03;;;;;;;1.15;0.38;;;16.70;99.90;;;;;;5007103;28;20092;-71
2022/09/12 00:22:29;;;;;;;0.40;0.40;;;16.70;99.90;;;;;;4990478;28;20061;-71
2022/09/12 00:24:54;;;;;;;1.55;0.32;;;16.70;99.90;;;;;;4988851;28;20050;-70
2022/09/12 00:27:20;;;;;;;0.80;0.65;;;16.60;99.90;;;;;;5003459;28;20053;-70
2022/09/12 00:29:45;;;;;;;0.35;0.35;;;16.60;99.90;;;;;;5008652;28;20052;-70
2022/09/12 00:32:11;;;;;;;0.32;0.32;;;16.70;99.90;;;;;;4999398;28;20042;-70
2022/09/12 00:34:36;;;;;;;0.77;0.40;;;16.70;99.90;;;;;;4994769;28;20077;-71
2022/09/12 00:37:02;;;;;;;0.10;0.10;;;16.70;99.90;;;;;;4994151;28;20046;-70
2022/09/12 00:39:28;;;;;;;0.08;0.08;;;16.70;99.90;;;;;;4993408;28;20482;-70
2022/09/12 00:41:53;;;;;;;0.22;0.22;;;16.70;99.90;;;;;;4994861;28;20052;-70
2022/09/12 00:44:22;;;;;;;0.00;0.00;;;16.60;99.90;;;;;;4993708;28;20410;-70
2022/09/12 00:46:59;;;;;;;0.52;0.52;;;16.60;99.90;;;;;;4995077;28;20069;-70
2022/09/12 00:49:52;;;;;;;0.55;0.55;;;16.60;99.90;;;;;;5008405;28;20045;-70
2022/09/12 00:52:24;;;;;;;1.55;1.40;;;16.60;99.90;;;;;;5013007;28;20057;-70
2022/09/12 00:55:00;;;;;;;0.55;0.55;;;16.60;99.90;;;;;;5012490;28;20069;-70
2022/09/12 00:57:31;;;;;;;0.50;0.50;;;16.60;99.90;;;;;;5004466;28;20057;-70
2022/09/12 01:00:16;;;;;;;0.35;0.30;;;16.50;99.90;;;;;;4993360;28;20045;-70
2022/09/12 01:02:55;;;;;;;1.55;0.40;;;16.50;99.90;;;;;;4997524;28;20494;-71
2022/09/12 01:05:22;;;;;;;0.08;0.08;;;16.50;99.90;;;;;;4989895;28;20394;-71
2022/09/12 01:07:49;;;;;;;0.13;0.13;;;16.50;99.90;;;;;;4992450;28;20047;-71
2022/09/12 01:10:15;;;;;;;0.52;0.52;;;16.40;99.90;;;;;;4992808;28;20054;-71
2022/09/12 01:12:42;;;;;;;0.45;0.45;;;16.40;99.90;;;;;;4992637;28;20053;-71
2022/09/12 01:15:08;;;;;;;0.10;0.10;;;16.40;99.90;;;;;;4994267;28;20057;-71
2022/09/12 01:17:52;;;;;;;0.00;0.00;;;16.40;99.90;;;;;;5002750;28;20042;-71
2022/09/12 01:20:43;;;;;;;0.28;0.28;;;16.40;99.90;;;;;;5012561;28;20099;-70
2022/09/12 01:23:51;;;;;;;0.35;0.35;;;16.50;99.90;;;;;;5010798;28;20042;-71
2022/09/12 01:26:53;;;;;;;0.00;0.00;;;16.30;99.90;;;;;;5012798;28;20045;-71
2022/09/12 01:29:46;;;;;;;0.32;0.20;;;16.30;99.90;;;;;;5011327;28;20046;-70
2022/09/12 01:32:31;;;;;;;0.35;0.35;;;16.30;99.90;;;;;;5002220;28;20598;-71
2022/09/12 01:35:15;;;;;;;0.65;0.65;;;16.30;99.90;;;;;;4992254;28;20057;-71
2022/09/12 01:38:12;;;;;;;0.68;0.68;;;16.30;99.90;;;;;;4993996;28;20054;-71
2022/09/12 01:40:49;;;;;;;0.35;0.35;;;16.30;99.90;;;;;;5005781;28;20140;-71
2022/09/12 01:43:41;;;;;;;0.10;0.10;;;16.20;99.90;;;;;;4999438;28;20050;-71
2022/09/12 01:46:16;;;;;;;0.10;0.10;;;16.20;99.90;;;;;;5012196;28;20045;-71
2022/09/12 01:48:56;;;;;;;0.55;0.55;;;16.10;99.90;;;;;;5012888;28;20149;-71
2022/09/12 01:51:34;;;;;;;0.15;0.15;;;16.10;99.90;;;;;;5013092;28;20461;-71
2022/09/12 01:54:21;;;;;;;0.30;0.30;;;16.10;99.90;;;;;;4992989;28;20398;-71
2022/09/12 01:56:51;;;;;;;0.20;0.20;;;16.20;99.90;;;;;;4992431;28;20046;-71
2022/09/12 01:59:24;;;;;;;0.00;0.00;;;16.10;99.90;;;;;;4993054;28;20046;-71
2022/09/12 02:02:20;;;;;;;0.68;0.68;;;16.10;99.90;;;;;;4992650;28;20050;-71
2022/09/12 02:05:09;;;;;;;0.15;0.15;;;16.00;99.90;;;;;;5010859;28;20058;-70
2022/09/12 02:07:43;;;;;;;0.25;0.20;;;16.10;99.90;;;;;;5012835;28;20407;-71
2022/09/12 02:10:19;;;;;;;0.10;0.10;;;16.00;99.90;;;;;;5009471;28;20121;-70
2022/09/12 02:12:54;;;;;;;0.52;0.47;;;16.00;99.90;;;;;;5013200;28;20096;-70
2022/09/12 02:15:26;;;;;;;0.10;0.10;;;16.00;99.90;;;;;;5011603;28;20096;-71
2022/09/12 02:17:56;;;;;;;0.28;0.28;;;16.00;99.90;;;;;;5010321;28;20391;-70
2022/09/12 02:20:33;;;;;;;1.75;0.40;;;16.00;99.90;;;;;;5010644;28;20409;-71
2022/09/12 02:23:00;;;;;;;0.10;0.10;;;16.00;99.90;;;;;;5009521;28;20081;-71
2022/09/12 02:25:28;;;;;;;0.10;0.10;;;15.90;99.90;;;;;;5012378;28;20054;-70
2022/09/12 02:27:57;;;;;;;0.38;0.38;;;16.10;99.90;;;;;;5012770;28;20084;-70
2022/09/12 02:30:24;;;;;;;0.10;0.10;;;16.00;99.90;;;;;;5011193;28;20045;-70
2022/09/12 02:32:52;;;;;;;0.00;0.00;;;16.00;99.90;;;;;;5009337;28;20486;-70
2022/09/12 02:35:24;;;;;;;0.15;0.15;;;15.90;99.90;;;;;;5012080;28;20044;-70
2022/09/12 02:38:07;;;;;;;0.20;0.20;;;15.90;99.90;;;;;;5011999;28;20157;-71
2022/09/12 02:40:33;;;;;;;;;;;15.80;99.90;;;;;;5010278;28;20046;-71
2022/09/12 02:43:01;;;;;;;0.52;0.52;;;15.80;99.90;;;;;;4992405;28;19928;-71
2022/09/12 02:45:28;;;;;;;0.10;0.10;;;15.80;99.90;;;;;;4990441;28;20470;-71
2022/09/12 02:48:04;;;;;;;1.35;1.25;;;15.80;99.90;;;;;;4992991;28;20050;-71
2022/09/12 02:50:30;;;;;;;1.73;1.13;;;15.80;99.90;;;;;;4996073;28;20124;-71
2022/09/12 02:53:03;;;;;;;0.45;0.30;;;15.80;99.90;;;;;;5010535;28;20105;-71
2022/09/12 02:55:31;;;;;;;0.40;0.40;;;15.80;99.90;;;;;;5010268;28;20139;-70
2022/09/12 02:57:56;;;;;;;0.20;0.20;;;15.80;99.90;;;;;;5002946;28;20404;-71
2022/09/12 03:00:23;;;;;;;0.10;0.10;;;15.80;99.90;;;;;;4991569;28;20129;-71
2022/09/12 03:03:08;;;;;;;0.00;0.00;;;15.80;99.90;;;;;;4991345;28;20107;-71
2022/09/12 03:05:57;;;;;;;0.10;0.10;;;15.80;99.90;;;;;;4990566;28;20046;-70
2022/09/12 03:08:44;;;;;;;2.75;0.55;;;15.80;99.90;;;;;;4990541;28;20049;-70
2022/09/12 03:11:16;;;;;;;0.30;0.30;;;15.70;99.90;;;;;;4995612;28;20046;-71
2022/09/12 03:13:58;;;;;;;0.03;0.03;;;15.60;99.90;;;;;;4990608;28;20073;-71
2022/09/12 03:16:37;;;;;;;0.13;0.13;;;15.60;99.90;;;;;;4991851;28;20425;-71
2022/09/12 03:19:32;;;;;;;0.20;0.20;;;15.60;99.90;;;;;;4988440;28;20089;-70
2022/09/12 03:22:06;;;;;;;0.47;0.47;;;15.50;99.90;;;;;;4992105;28;20061;-70
2022/09/12 03:24:41;;;;;;;0.20;0.20;;;15.60;99.90;;;;;;4991780;28;20383;-70
2022/09/12 03:27:10;;;;;;;0.57;0.43;;;15.50;99.90;;;;;;4991528;28;20042;-70
2022/09/12 03:29:38;;;;;;;0.00;0.00;;;15.50;99.90;;;;;;4992181;28;20046;-71
2022/09/12 03:32:04;;;;;;;0.28;0.28;;;15.40;99.90;;;;;;4998059;28;20068;-71
2022/09/12 03:34:30;;;;;;;0.43;0.38;;;15.50;99.90;;;;;;5008634;28;20379;-71
2022/09/12 03:36:56;;;;;;;0.95;0.90;;;15.50;99.90;;;;;;5011488;28;20050;-70
2022/09/12 03:39:23;;;;;;;0.25;0.25;;;15.50;99.90;;;;;;5011005;28;20042;-71
2022/09/12 03:41:49;;;;;;;0.32;0.32;;;15.50;99.90;;;;;;4992893;28;20129;-71
2022/09/12 03:44:16;;;;;;;0.38;0.38;;;15.50;99.90;;;;;;4991184;28;20047;-71
2022/09/12 03:46:42;;;;;;;0.13;0.13;;;15.50;99.90;;;;;;4990985;28;20046;-71
2022/09/12 03:49:07;;;;;;;0.52;0.50;;;15.60;99.90;;;;;;4998866;28;20660;-70
2022/09/12 03:51:33;;;;;;;0.85;0.63;;;15.60;99.90;;;;;;5010987;28;20096;-71
2022/09/12 03:53:58;;;;;;;0.25;0.25;;;15.60;99.90;;;;;;5010683;28;20041;-71
2022/09/12 03:56:24;;;;;;;0.20;0.20;;;15.60;99.90;;;;;;4999159;28;20050;-71
2022/09/12 03:58:49;;;;;;;0.20;0.20;;;15.50;99.90;;;;;;4990929;28;20078;-71
2022/09/12 04:01:17;;;;;;;0.10;0.10;;;15.60;99.90;;;;;;4990252;28;20438;-71
2022/09/12 04:03:44;;;;;;;0.30;0.28;;;15.60;99.90;;;;;;4991881;28;20030;-71
2022/09/12 04:06:13;;;;;;;0.45;0.45;;;15.60;99.90;;;;;;4994899;28;20038;-70
2022/09/12 04:08:40;;;;;;;0.80;0.73;;;15.60;99.90;;;;;;5009877;28;20117;-71
2022/09/12 04:11:11;;;;;;;0.30;0.30;;;15.60;99.90;;;;;;4993796;28;20065;-71
2022/09/12 04:13:38;;;;;;;0.55;0.55;;;15.60;99.90;;;;;;4991733;28;20042;-70
2022/09/12 04:16:04;;;;;;;0.50;0.50;;;15.60;99.90;;;;;;4987806;28;20561;-70
2022/09/12 04:18:31;;;;;;;0.30;0.30;;;15.60;99.90;;;;;;4991656;28;20129;-70
2022/09/12 04:20:56;;;;;;;0.40;0.40;;;15.60;99.90;;;;;;4993083;28;20180;-70
2022/09/12 04:23:22;;;;;;;1.17;0.32;;;15.60;99.90;;;;;;5009458;28;20121;-71
2022/09/12 04:25:55;;;;;;;0.35;0.35;;;15.70;99.90;;;;;;5010895;28;20045;-70
2022/09/12 04:28:21;;;;;;;0.75;0.75;;;15.70;99.90;;;;;;5010659;28;20053;-70
2022/09/12 04:30:47;;;;;;;1.13;1.08;;;15.70;99.90;;;;;;5001325;28;20504;-71
2022/09/12 04:33:13;;;;;;;0.47;0.47;;;15.70;99.90;;;;;;4996353;28;20082;-70
2022/09/12 04:35:40;;;;;;;0.35;0.35;;;15.60;99.90;;;;;;4991322;28;20139;-71
2022/09/12 04:38:06;;;;;;;0.80;0.57;;;15.70;99.90;;;;;;4997802;28;20139;-71
2022/09/12 04:40:32;;;;;;;0.73;0.60;;;15.70;99.90;;;;;;5010473;28;20050;-71
2022/09/12 04:42:58;;;;;;;0.40;0.40;;;15.70;99.90;;;;;;5010080;28;20054;-71
2022/09/12 04:45:24;;;;;;;0.38;0.38;;;15.70;99.90;;;;;;5007931;28;20074;-71
2022/09/12 04:47:50;;;;;;;0.63;0.63;;;15.70;99.90;;;;;;5010495;28;20161;-70
2022/09/12 04:50:16;;;;;;;2.00;0.73;;;15.70;99.90;;;;;;4993924;28;20043;-71
2022/09/12 04:52:42;;;;;;;0.10;0.10;;;15.60;99.90;;;;;;4990956;28;20061;-70
2022/09/12 04:55:08;;;;;;;0.20;0.15;;;15.70;99.90;;;;;;5001198;28;20490;-71
2022/09/12 04:57:34;;;;;;;0.43;0.43;;;15.60;99.90;;;;;;5009634;28;20050;-70
2022/09/12 05:00:01;;;;;;;0.55;0.55;;;15.70;99.90;;;;;;5010268;28;20045;-71
2022/09/12 05:02:26;;;;;;;0.10;0.10;;;15.70;99.90;;;;;;4998644;28;20406;-71
2022/09/12 05:04:53;;;;;;;1.50;1.40;;;15.70;99.90;;;;;;4990376;28;20046;-71
2022/09/12 05:07:18;;;;;;;2.53;1.05;;;15.70;99.90;;;;;;4990452;28;20376;-70
2022/09/12 05:09:44;;;;;;;0.60;0.60;;;15.70;99.90;;;;;;4991036;28;20050;-70
2022/09/12 05:12:10;;;;;;;0.20;0.20;;;15.80;99.90;;;;;;4989403;28;20042;-71
2022/09/12 05:14:36;;;;;;;0.98;0.90;;;15.70;99.90;;;;;;4989722;28;20398;-70
2022/09/12 05:17:04;;;;;;;2.15;0.55;;;15.70;99.90;;;;;;4990060;28;20046;-71
2022/09/12 05:19:30;;;;;;;0.52;0.52;;;15.70;99.90;;;;;;4991802;28;20394;-70
2022/09/12 05:21:57;;;;;;;1.55;0.43;;;15.80;99.90;;;;;;4992663;28;20039;-70
2022/09/12 05:24:23;;;;;;;0.43;0.43;;;15.80;99.90;;;;;;4995171;28;20077;-71
2022/09/12 05:26:49;;;;;;;0.65;0.65;;;15.80;99.90;;;;;;5012962;28;20144;-70
2022/09/12 05:29:14;;;;;;;2.63;1.23;;;15.80;99.90;;;;;;5013177;28;20443;-70
2022/09/12 05:31:40;;;;;;;0.28;0.28;;;15.80;99.90;;;;;;5013800;28;20561;-71
2022/09/12 05:34:08;;;;;;;0.63;0.63;;;15.80;99.90;;;;;;5010127;28;20416;-71
2022/09/12 05:36:35;;;;;;;1.02;0.95;;;15.80;99.90;;;;;;5012747;28;20053;-71
2022/09/12 05:39:02;;;;;;;1.30;0.73;;;15.80;99.90;;;;;;5001090;28;20061;-71
2022/09/12 05:41:31;;;;;;;0.30;0.30;;;15.80;99.90;;;;;;4994299;28;20504;-71
2022/09/12 05:43:59;;;;;;;0.30;0.30;;;15.90;99.90;;;;;;5007967;28;20046;-71
2022/09/12 05:46:30;;;;;;;2.40;1.33;;;15.80;99.90;;;;;;5012503;28;20054;-71
2022/09/12 05:49:02;;;;;;;0.60;0.45;;;15.80;99.90;;;;;;5011585;28;20511;-71
2022/09/12 05:51:32;;;;;;;0.30;0.30;;;15.90;99.90;;;;;;4998321;28;20057;-71
2022/09/12 05:54:00;;;;;;;0.20;0.20;;;15.90;99.90;;;;;;4991864;28;20054;-71
2022/09/12 05:56:30;;;;;;;0.75;0.40;;;15.90;99.90;;;;;;4992231;28;20058;-71
2022/09/12 05:59:05;;;;;;;0.22;0.22;;;15.90;99.90;;;;;;5012815;28;20061;-71
2022/09/12 06:01:33;;;;;;;0.25;0.25;;;15.90;99.90;;;;;;5011735;28;20069;-71
2022/09/12 06:04:02;;;;;;;0.40;0.40;;;15.90;99.90;;;;;;5013377;28;20379;-71
2022/09/12 06:06:29;;;;;;;0.60;0.30;;;15.90;99.90;;;;;;5007306;28;20041;-71
2022/09/12 06:09:00;;;;;;;0.20;0.20;;;16.00;99.90;;;;;;5011011;28;20475;-71
2022/09/12 06:11:27;;;;;;;0.25;0.25;;;16.00;99.90;;;;;;4991061;28;20101;-71
2022/09/12 06:13:56;;;;;;;0.57;0.57;;;16.00;99.90;;;;;;4993319;28;20105;-71
2022/09/12 06:16:24;;;;;;;0.40;0.40;;;16.00;99.90;;;;;;4990944;28;20050;-70
2022/09/12 06:19:01;;;;;;;1.13;0.47;;;16.00;99.90;;;;;;4999055;28;20048;-71
2022/09/12 06:21:30;;;;;;;2.95;0.57;;;16.00;99.90;;;;;;5011537;28;20081;-70
2022/09/12 06:23:57;;;;;;;0.20;0.20;;;16.00;99.90;;;;;;5012879;28;20050;-71
2022/09/12 06:26:24;;;;;;;0.25;0.25;;;16.10;99.90;;;;;;5012376;28;20033;-71
2022/09/12 06:28:51;;;;;;;0.10;0.10;;;16.10;99.90;;;;;;5009138;28;20050;-71
2022/09/12 06:31:25;;;;;;;0.50;0.50;;;16.10;99.90;;;;;;5011500;28;20128;-71
2022/09/12 06:33:52;;;;;;;0.10;0.10;;;16.10;99.90;;;;;;5007238;28;20739;-71
2022/09/12 06:36:21;;;;;;;0.30;0.30;;;16.10;99.90;;;;;;5010212;28;20096;-71
2022/09/12 06:38:47;;;;;;;2.08;0.45;;;16.20;99.90;;;;;;5002624;28;20053;-71
2022/09/12 06:41:14;;;;;;;0.05;0.05;;;16.10;99.90;;;;;;4997309;28;20117;-73
2022/09/12 06:43:41;;;;;;;0.38;0.38;;;16.20;99.90;;;;;;4992343;28;20039;-71
2022/09/12 06:46:07;;;;;;;1.05;0.73;;;16.20;99.90;;;;;;4991418;28;20046;-71
2022/09/12 06:48:33;;;;;;;0.10;0.10;;;16.20;99.90;;;;;;4992727;28;20104;-71
2022/09/12 06:51:08;;;;;;;2.33;0.90;;;16.20;99.90;;;;;;4992105;28;20053;-71
2022/09/12 06:53:37;;;;;;;0.22;0.22;;;16.20;99.90;;;;;;4991273;28;20431;-71
2022/09/12 06:56:15;;;;;;;0.40;0.40;;;16.30;99.90;;;;;;4992436;28;20475;-71
2022/09/12 06:58:41;;;;;;;0.60;0.60;;;16.30;99.90;;;;;;4992344;28;20105;-71
2022/09/12 07:01:14;;;;;;;3.92;1.38;;;16.30;99.90;;;;;;4991837;28;20100;-71
2022/09/12 07:03:41;;;;;;;0.17;0.17;;;16.30;99.90;;;;;;4990399;28;20108;-71
2022/09/12 07:06:09;;;;;;;0.30;0.30;;;16.30;99.90;;;;;;4992017;28;20050;-71
2022/09/12 07:08:36;;;;;;;0.45;0.35;;;16.30;99.90;;;;;;4992730;28;20128;-71
2022/09/12 07:11:11;;;;;;;0.20;0.20;;;16.30;99.90;;;;;;4991658;28;20108;-71
2022/09/12 07:13:38;;;;;;;0.00;0.00;;;16.40;99.90;;;;;;5006755;28;20390;-71
2022/09/12 07:16:05;;;;;;;0.47;0.47;;;16.40;99.90;;;;;;5011808;28;20053;-71
2022/09/12 07:18:34;;;;;;;0.20;0.20;;;16.40;99.90;;;;;;5010116;28;20058;-71
2022/09/12 07:21:01;;;;;;;0.98;0.50;;;16.50;99.90;;;;;;5001980;28;20042;-71
2022/09/12 07:23:27;;;;;;;0.10;0.10;;;16.50;99.90;;;;;;5002635;28;20493;-71
2022/09/12 07:25:55;;;;;;;0.38;0.38;;;16.60;99.90;;;;;;5011012;28;20064;-71
2022/09/12 07:28:23;;;;;;;0.40;0.40;;;16.60;99.90;;;;;;5005057;28;20221;-71
2022/09/12 07:30:48;;;;;;;0.08;0.08;;;16.70;99.90;;;;;;5007097;28;20065;-71
2022/09/12 07:33:14;;;;;;;0.20;0.20;;;16.70;99.90;;;;;;4995427;28;20050;-71
2022/09/12 07:35:39;;;;;;;0.10;0.10;;;16.80;99.90;;;;;;4991020;28;20486;-71
2022/09/12 07:38:05;;;;;;;0.10;0.10;;;16.80;99.90;;;;;;4991295;28;20105;-71
2022/09/12 07:40:31;;;;;;;0.10;0.10;;;16.80;99.90;;;;;;5003206;28;20144;-71
2022/09/12 07:42:56;;;;;;;2.63;1.45;;;16.90;99.90;;;;;;4989271;28;20490;-71
2022/09/12 07:45:22;;;;;;;0.13;0.13;;;17.00;99.90;;;;;;4989708;28;20057;-71
2022/09/12 07:47:47;;;;;;;0.85;0.85;;;17.00;99.90;;;;;;5010511;28;20053;-72
2022/09/12 07:50:13;;;;;;;0.40;0.40;;;17.10;99.90;;;;;;5011084;28;20037;-71
2022/09/12 07:52:38;;;;;;;0.85;0.82;;;17.10;99.90;;;;;;5011610;28;20078;-72
2022/09/12 07:55:04;;;;;;;0.40;0.40;;;17.20;99.90;;;;;;5007594;28;20414;-72
2022/09/12 07:57:30;;;;;;;3.13;1.23;;;17.20;99.90;;;;;;5011526;28;20143;-71
2022/09/12 07:59:55;;;;;;;0.65;0.65;;;17.20;99.90;;;;;;5001068;28;20073;-71
2022/09/12 08:02:21;;;;;;;0.20;0.20;;;17.30;99.90;;;;;;4990806;28;20414;-72
2022/09/12 08:04:47;;;;;;;0.32;0.32;;;17.40;99.90;;;;;;4991847;28;20046;-71
2022/09/12 08:07:14;;;;;;;0.40;0.40;;;17.40;99.90;;;;;;4991517;28;20042;-72
2022/09/12 08:09:39;;;;;;;0.40;0.40;;;17.50;99.90;;;;;;5009633;28;20046;-71
2022/09/12 08:12:05;;;;;;;0.45;0.45;;;17.60;99.90;;;;;;5002246;28;20465;-72
2022/09/12 08:14:31;;;;;;;0.10;0.10;;;17.60;99.90;;;;;;4989364;28;20042;-71
2022/09/12 08:16:56;;;;;;;2.88;0.77;;;17.70;99.90;;;;;;4990207;28;20133;-71
2022/09/12 08:19:22;;;;;;;0.75;0.55;;;17.80;99.90;;;;;;4991178;28;20058;-71
2022/09/12 08:21:47;;;;;;;0.32;0.32;;;17.80;99.90;;;;;;4989063;28;20049;-71
2022/09/12 08:24:14;;;;;;;1.65;0.68;;;17.80;99.90;;;;;;4989492;28;20593;-71
2022/09/12 08:26:40;;;;;;;1.05;0.95;;;17.90;99.90;;;;;;4991391;28;20094;-71
2022/09/12 08:29:05;;;;;;;0.90;0.90;;;17.90;99.90;;;;;;4990087;28;20070;-71
2022/09/12 08:31:35;;;;;;;0.57;0.57;;;18.00;99.90;;;;;;5004854;28;20050;-72
2022/09/12 08:34:05;;;;;;;0.68;0.50;;;18.00;99.90;;;;;;4991241;28;20046;-71
2022/09/12 08:36:31;;;;;;;0.70;0.70;;;18.00;99.90;;;;;;4989112;28;20076;-72
2022/09/12 08:39:02;;;;;;;1.63;1.52;;;18.00;99.90;;;;;;5009972;28;20615;-71
2022/09/12 08:41:33;;;;;;;0.50;0.50;;;18.00;99.90;;;;;;5010573;28;20500;-72
2022/09/12 08:44:49;;;;;;;0.55;0.55;;;18.00;99.90;;;;;;5009807;28;20100;-71
2022/09/12 08:47:24;;;;;;;4.13;1.17;;;18.10;99.90;;;;;;5006309;28;20187;-71
2022/09/12 08:50:14;;;;;;;0.17;0.17;;;18.20;99.90;;;;;;5009980;28;20165;-71
2022/09/12 08:52:57;;;;;;;4.25;0.93;;;18.30;99.90;;;;;;5006746;28;20418;-71
2022/09/12 08:55:32;;;;;;;0.40;0.40;;;18.40;99.90;;;;;;4992221;28;20089;-71
2022/09/12 08:57:59;;;;;;;1.65;1.55;;;18.50;99.90;;;;;;4994011;28;20049;-71
2022/09/12 09:00:37;;;;;;;0.47;0.47;;;18.50;99.90;;;;;;5000089;28;20068;-71
2022/09/12 09:03:03;;;;;;;0.30;0.30;;;18.60;99.90;;;;;;5012683;28;20132;-71
2022/09/12 09:05:56;;;;;;;2.22;0.90;;;18.60;99.90;;;;;;5009652;28;20122;-71
2022/09/12 09:08:46;;;;;;;0.80;0.80;;;18.70;99.90;;;;;;5011352;28;20504;-71
2022/09/12 09:11:14;;;;;;;1.35;1.25;;;19.30;99.90;;;;;;5013296;28;20041;-71
2022/09/12 09:16:40;;;;;;;0.85;0.85;;;20.60;99.90;;;;;;4991529;28;20058;-71
2022/09/12 09:19:14;;;;;;;0.75;0.75;;;21.00;99.90;;;;;;4993087;28;20489;-71
2022/09/12 09:22:10;;;;;;;0.68;0.68;;;21.50;99.90;;;;;;4994467;28;20398;-71
2022/09/12 09:24:41;;;;;;;4.22;1.70;;;21.70;99.90;;;;;;5007545;28;20129;-71
2022/09/12 09:27:20;;;;;;;3.10;1.88;;;21.80;99.90;;;;;;5013265;28;20537;-71
2022/09/12 09:29:51;;;;;;;5.50;0.93;;;21.70;99.90;;;;;;5013978;28;20056;-71
2022/09/12 09:32:24;;;;;;;1.48;0.82;;;21.60;99.90;;;;;;5010321;28;20046;-71
2022/09/12 09:34:50;;;;;;;1.00;1.00;;;21.60;99.90;;;;;;5013657;28;20050;-71
2022/09/12 09:37:29;;;;;;;2.70;1.13;;;21.50;99.90;;;;;;5012255;28;20056;-72
2022/09/12 09:40:00;;;;;;;0.43;0.43;;;21.40;99.90;;;;;;5009854;28;20121;-71
2022/09/12 09:42:35;;;;;;;0.75;0.75;;;21.50;99.90;;;;;;4992341;28;20402;-71
2022/09/12 09:45:15;;;;;;;0.20;0.20;;;21.40;99.90;;;;;;4992189;28;20042;-71
2022/09/12 09:47:44;;;;;;;8.80;0.75;;;21.70;99.90;;;;;;5012620;28;20065;-72
2022/09/12 09:50:15;;;;;;;1.75;1.65;;;21.90;99.90;;;;;;5005042;28;20054;-72
2022/09/12 09:52:41;;;;;;;1.88;1.35;;;21.70;99.90;;;;;;4993406;28;20050;-72
2022/09/12 09:55:14;;;;;;;0.00;0.00;;;22.10;99.90;;;;;;4991956;28;20089;-71
2022/09/12 09:57:41;;;;;;;0.52;0.52;;;22.70;99.90;;;;;;4999744;28;20390;-71
2022/09/12 10:00:30;;;;;;;1.38;1.08;;;23.00;99.90;;;;;;5012148;28;20108;-71
2022/09/12 10:03:04;;;;;;;0.00;0.00;;;23.50;99.90;;;;;;5009507;28;20456;-71
2022/09/12 10:05:32;;;;;;;0.47;0.47;;;23.20;99.90;;;;;;5011950;28;20446;-71
2022/09/12 10:07:58;;;;;;;0.80;0.80;;;23.40;99.90;;;;;;5012624;28;20096;-71
2022/09/12 10:10:24;;;;;;;0.52;0.30;;;23.30;99.90;;;;;;5003411;28;20042;-71
2022/09/12 10:13:04;;;;;;;0.95;0.95;;;23.40;99.90;;;;;;4993643;28;20372;-70
2022/09/12 10:15:30;;;;;;;4.03;0.70;;;23.20;99.90;;;;;;4992766;28;20117;-70
2022/09/12 10:17:57;;;;;;;0.20;0.20;;;23.20;99.90;;;;;;4993486;28;20046;-70
2022/09/12 10:20:44;;;;;;;1.45;0.75;;;23.20;99.90;;;;;;5004868;28;20446;-69
2022/09/12 10:23:36;;;;;;;0.82;0.82;;;23.20;99.90;;;;;;5010805;28;20041;-70
2022/09/12 10:26:03;;;;;;;1.55;0.75;;;23.40;99.90;;;;;;5012788;28;20045;-70
2022/09/12 10:28:38;;;;;;;0.13;0.13;;;23.40;99.90;;;;;;5010636;28;20042;-70
2022/09/12 10:31:05;;;;;;;1.98;0.40;;;23.50;99.90;;;;;;5010391;28;20078;-70
2022/09/12 10:33:39;;;;;;;1.00;1.00;;;23.40;99.90;;;;;;5008649;28;20049;-70
2022/09/12 10:36:05;;;;;;;0.88;0.85;;;23.40;99.90;;;;;;5011121;28;20046;-70
2022/09/12 10:38:31;;;;;;;0.20;0.20;;;23.40;99.90;;;;;;5010688;28;20049;-70
2022/09/12 10:41:06;;;;;;;0.68;0.68;;;23.40;99.90;;;;;;4996465;28;20144;-71
2022/09/12 10:43:32;;;;;;;0.35;0.30;;;23.40;99.90;;;;;;4995086;28;20049;-71
2022/09/12 10:46:14;;;;;;;0.20;0.20;;;23.40;99.90;;;;;;4992741;28;20449;-71
2022/09/12 10:48:40;;;;;;;1.08;0.98;;;23.60;99.90;;;;;;4990577;28;20050;-71
2022/09/12 10:51:23;;;;;;;0.50;0.50;;;23.70;99.90;;;;;;4991636;28;20486;-71
2022/09/12 10:53:50;;;;;;;0.33;0.33;;;23.90;99.90;;;;;;4997504;28;20053;-71
2022/09/12 10:56:19;;;;;;;1.35;1.00;;;23.90;99.90;;;;;;5010745;28;20281;-71
2022/09/12 10:59:03;;;;;;;0.20;0.20;;;23.90;99.90;;;;;;5012174;28;20056;-71
2022/09/12 11:01:31;;;;;;;0.95;0.90;;;23.70;99.90;;;;;;5011703;28;20140;-72
2022/09/12 11:04:21;;;;;;;6.00;0.60;;;23.50;99.90;;;;;;4992041;28;20038;-71
2022/09/12 11:07:36;;;;;;;4.88;1.23;;;23.40;99.90;;;;;;4997443;28;20054;-71
2022/09/12 11:10:16;;;;;;;0.17;0.17;;;23.50;99.90;;;;;;4989181;28;20050;-71
2022/09/12 11:13:09;;;;;;;0.30;0.30;;;23.80;99.90;;;;;;4990592;28;20109;-72
2022/09/12 11:15:46;;;;;;;0.00;0.00;;;23.70;99.90;;;;;;5005712;28;20064;-71
2022/09/12 11:18:47;;;;;;;0.80;0.50;;;23.80;99.90;;;;;;5010475;28;20500;-71
2022/09/12 11:21:16;;;;;;;0.30;0.30;;;23.90;99.90;;;;;;4991640;28;20047;-71
2022/09/12 11:24:00;;;;;;;0.20;0.20;;;24.00;99.90;;;;;;4992260;28;20125;-71
2022/09/12 11:26:56;;;;;;;0.63;0.63;;;24.50;99.90;;;;;;4999177;28;20046;-72
2022/09/12 11:29:40;;;;;;;0.20;0.20;;;24.30;99.90;;;;;;5010961;28;20081;-72
2022/09/12 11:32:30;;;;;;;0.30;0.30;;;24.00;99.90;;;;;;5010284;28;20104;-72
2022/09/12 11:34:57;;;;;;;2.35;1.30;;;24.00;99.90;;;;;;5009279;28;20073;-72
2022/09/12 11:37:45;;;;;;;3.50;0.70;;;24.10;99.90;;;;;;5010834;28;20045;-72
2022/09/12 11:40:32;;;;;;;0.17;0.17;;;24.10;99.90;;;;;;5003076;28;20050;-72
2022/09/12 11:43:21;;;;;;;0.30;0.30;;;24.00;99.90;;;;;;4991764;28;20046;-71
2022/09/12 11:45:47;;;;;;;0.00;0.00;;;24.00;99.90;;;;;;4980746;28;20050;-72
2022/09/12 11:48:39;;;;;;;0.52;0.38;;;23.80;99.90;;;;;;4990314;28;20053;-72
2022/09/12 11:51:11;;;;;;;2.90;1.17;;;23.70;99.90;;;;;;4990838;28;20074;-72
2022/09/12 11:53:41;;;;;;;2.03;0.43;;;23.50;99.90;;;;;;4991224;28;20116;-72
2022/09/12 11:56:12;;;;;;;0.10;0.10;;;23.40;99.90;;;;;;4991196;28;20125;-72
2022/09/12 11:58:41;;;;;;;0.88;0.82;;;23.20;99.90;;;;;;4988733;28;20081;-71
2022/09/12 12:01:10;;;;;;;0.00;0.00;;;23.20;99.90;;;;;;4989954;28;20421;-72
2022/09/12 12:03:44;;;;;;;0.20;0.20;;;23.20;99.90;;;;;;4990264;28;20054;-72
2022/09/12 12:06:32;;;;;;;0.52;0.52;;;23.20;99.90;;;;;;5006562;28;20096;-71
2022/09/12 12:08:58;;;;;;;0.30;0.30;;;23.20;99.90;;;;;;5008483;28;20403;-71
2022/09/12 12:11:26;;;;;;;0.10;0.10;;;23.20;99.90;;;;;;4991238;28;20057;-71
2022/09/12 12:14:06;;;;;;;0.17;0.17;;;23.20;99.90;;;;;;4990629;28;20089;-71
2022/09/12 12:16:39;;;;;;;1.15;0.98;;;23.40;99.90;;;;;;4991348;28;20042;-71
2022/09/12 12:19:24;;;;;;;2.17;0.28;;;23.30;99.90;;;;;;4989595;28;20042;-72
2022/09/12 12:21:50;;;;;;;0.10;0.10;;;23.50;99.90;;;;;;4990274;28;20128;-72
2022/09/12 12:24:24;;;;;;;0.63;0.57;;;23.60;99.90;;;;;;4995190;28;20095;-71
2022/09/12 12:26:53;;;;;;;0.00;0.00;;;23.70;99.90;;;;;;5010875;28;20050;-72
2022/09/12 12:29:18;;;;;;;0.85;0.52;;;23.90;99.90;;;;;;5010864;28;20057;-72
2022/09/12 12:32:02;;;;;;;0.00;0.00;;;24.10;99.90;;;;;;5016794;28;20465;-72
2022/09/12 12:34:49;;;;;;;0.10;0.10;;;24.30;99.90;;;;;;5014309;28;20058;-72
2022/09/12 12:37:18;;;;;;;0.08;0.08;;;24.40;99.90;;;;;;5015994;28;20204;-72
2022/09/12 12:39:44;;;;;;;0.55;0.15;;;24.50;99.90;;;;;;5009557;28;20049;-72
2022/09/12 12:42:33;;;;;;;0.70;0.70;;;24.70;99.90;;;;;;4994816;28;20162;-73
2022/09/12 12:45:08;;;;;;;1.08;0.70;;;25.20;99.90;;;;;;4997183;28;20038;-72
2022/09/12 12:48:10;;;;;;;0.00;0.00;;;24.90;99.90;;;;;;4995860;28;20096;-72
2022/09/12 12:50:36;;;;;;;0.30;0.30;;;24.60;99.90;;;;;;4984067;28;20056;-72
2022/09/12 12:53:21;;;;;;;0.00;0.00;;;24.60;99.90;;;;;;4996868;28;20065;-71
2022/09/12 12:55:51;;;;;;;0.10;0.10;;;24.70;99.90;;;;;;4996971;28;20402;-71
2022/09/12 12:58:33;;;;;;;1.35;1.25;;;24.70;99.90;;;;;;4995530;28;20057;-71
2022/09/12 13:01:02;;;;;;;0.20;0.15;;;24.80;99.90;;;;;;5013192;28;20104;-71
2022/09/12 13:03:31;;;;;;;0.30;0.30;;;24.60;99.90;;;;;;5016162;28;20416;-71
2022/09/12 13:06:02;;;;;;;0.10;0.10;;;24.70;99.90;;;;;;5008916;28;20046;-71
2022/09/12 13:08:32;;;;;;;0.17;0.17;;;24.80;99.90;;;;;;4997093;28;20042;-71
2022/09/12 13:11:12;;;;;;;1.45;0.10;;;24.90;99.90;;;;;;4996871;28;20093;-71
2022/09/12 13:13:51;;;;;;;0.35;0.20;;;25.10;99.90;;;;;;4997425;28;20122;-72
2022/09/12 13:16:36;;;;;;;0.13;0.13;;;25.10;99.90;;;;;;4995104;28;20520;-72